createdAt,value
2023-03-03T00:01:20.474Z,7.23
2023-03-03T00:03:47.111Z,8.10
2023-03-03T00:06:14.801Z,7.15
2023-03-03T00:08:42.534Z,7.88
2023-03-03T00:11:10.004Z,7.95
2023-03-03T00:13:57.212Z,7.90
2023-03-03T00:16:35.607Z,7.05
2023-03-03T00:19:02.418Z,7.30
2023-03-03T00:21:40.476Z,7.70
2023-03-03T00:24:24.269Z,7.22
2023-03-03T00:26:58.179Z,6.67
2023-03-03T00:29:29.556Z,7.40
2023-03-03T00:32:10.725Z,7.20
2023-03-03T00:34:37.483Z,7.10
2023-03-03T00:37:04.698Z,7.30
2023-03-03T00:39:35.675Z,6.87
2023-03-03T00:42:05.562Z,7.88
2023-03-03T00:44:32.028Z,8.48
2023-03-03T00:47:12.915Z,8.07
2023-03-03T00:49:39.696Z,7.95
2023-03-03T00:52:17.705Z,7.47
2023-03-03T00:54:44.907Z,7.28
2023-03-03T00:57:14.872Z,7.63
2023-03-03T00:59:41.770Z,5.75
2023-03-03T01:02:08.497Z,8.23
2023-03-03T01:04:35.260Z,8.17
2023-03-03T01:07:04.545Z,8.55
2023-03-03T01:09:31.220Z,8.27
2023-03-03T01:11:58.055Z,9.07
2023-03-03T01:14:24.654Z,8.23
2023-03-03T01:16:52.468Z,8.37
2023-03-03T01:19:19.315Z,8.32
2023-03-03T01:21:45.991Z,7.57
2023-03-03T01:24:12.679Z,9.00
2023-03-03T01:26:39.374Z,8.30
2023-03-03T01:29:06.098Z,8.63
2023-03-03T01:31:33.272Z,8.25
2023-03-03T01:34:00.279Z,7.90
2023-03-03T01:36:28.440Z,8.57
2023-03-03T01:38:55.081Z,9.25
2023-03-03T01:41:21.946Z,8.10
2023-03-03T01:43:50.537Z,9.50
2023-03-03T01:46:45.270Z,8.57
2023-03-03T01:49:23.048Z,9.57
2023-03-03T01:51:59.506Z,9.27
2023-03-03T01:54:43.957Z,9.23
2023-03-03T01:57:21.856Z,8.88
2023-03-03T01:59:51.159Z,9.68
2023-03-03T02:02:18.974Z,8.48
2023-03-03T02:04:46.169Z,8.45
2023-03-03T02:07:15.228Z,8.47
2023-03-03T02:09:59.781Z,9.20
2023-03-03T02:12:34.276Z,9.57
2023-03-03T02:15:00.904Z,8.98
2023-03-03T02:17:27.795Z,9.07
2023-03-03T02:20:07.162Z,9.27
2023-03-03T02:22:57.560Z,9.88
2023-03-03T02:25:36.836Z,8.85
2023-03-03T02:28:03.687Z,9.32
2023-03-03T02:30:30.441Z,8.15
2023-03-03T02:32:57.054Z,8.27
2023-03-03T02:35:29.778Z,8.82
2023-03-03T02:38:09.847Z,7.55
2023-03-03T02:40:40.579Z,8.77
2023-03-03T02:43:09.378Z,7.03
2023-03-03T02:45:42.646Z,7.00
2023-03-03T02:48:09.201Z,7.53
2023-03-03T02:50:35.736Z,7.15
2023-03-03T02:53:05.254Z,7.63
2023-03-03T02:55:32.182Z,8.57
2023-03-03T02:57:58.930Z,7.93
2023-03-03T03:00:25.507Z,8.10
2023-03-03T03:02:52.304Z,9.45
2023-03-03T03:05:18.888Z,8.80
2023-03-03T03:07:45.515Z,7.80
2023-03-03T03:10:12.010Z,8.03
2023-03-03T03:12:38.617Z,8.93
2023-03-03T03:15:05.886Z,8.52
2023-03-03T03:17:32.596Z,8.95
2023-03-03T03:19:59.275Z,8.25
2023-03-03T03:22:26.204Z,7.87
2023-03-03T03:24:53.180Z,8.23
2023-03-03T03:27:20.162Z,7.55
2023-03-03T03:29:47.012Z,8.55
2023-03-03T03:32:13.688Z,9.02
2023-03-03T03:34:43.247Z,9.10
2023-03-03T03:37:09.985Z,9.38
2023-03-03T03:39:36.927Z,7.88
2023-03-03T03:42:03.660Z,8.60
2023-03-03T03:44:30.479Z,8.73
2023-03-03T03:46:57.060Z,9.33
2023-03-03T03:49:23.690Z,8.80
2023-03-03T03:51:50.419Z,8.65
2023-03-03T03:54:16.971Z,9.52
2023-03-03T03:56:43.618Z,10.07
2023-03-03T03:59:10.341Z,9.03
2023-03-03T04:01:38.295Z,9.00
2023-03-03T04:04:05.211Z,8.52
2023-03-03T04:06:32.546Z,8.32
2023-03-03T04:08:59.080Z,9.57
2023-03-03T04:11:25.690Z,9.37
2023-03-03T04:13:52.214Z,9.23
2023-03-03T04:16:18.843Z,9.98
2023-03-03T04:18:46.909Z,8.23
2023-03-03T04:21:15.420Z,9.57
2023-03-03T04:23:42.557Z,9.00
2023-03-03T04:26:10.582Z,6.65
2023-03-03T04:28:38.501Z,8.60
2023-03-03T04:31:05.442Z,7.78
2023-03-03T04:33:32.128Z,8.15
2023-03-03T04:35:58.756Z,6.83
2023-03-03T04:38:26.378Z,8.32
2023-03-03T04:40:53.309Z,7.22
2023-03-03T04:43:20.464Z,8.50
2023-03-03T04:45:47.265Z,7.45
2023-03-03T04:48:14.039Z,8.00
2023-03-03T04:50:42.633Z,8.00
2023-03-03T04:53:09.727Z,7.35
2023-03-03T04:55:38.793Z,8.13
2023-03-03T04:58:06.155Z,8.65
2023-03-03T05:00:33.060Z,8.57
2023-03-03T05:03:00.115Z,7.75
2023-03-03T05:05:26.816Z,8.13
2023-03-03T05:07:53.604Z,7.93
2023-03-03T05:10:20.998Z,7.90
2023-03-03T05:12:47.689Z,7.07
2023-03-03T05:15:14.274Z,8.00
2023-03-03T05:17:41.383Z,7.60
2023-03-03T05:20:10.040Z,6.88
2023-03-03T05:22:36.625Z,7.82
2023-03-03T05:25:03.570Z,7.03
2023-03-03T05:27:30.160Z,6.57
2023-03-03T05:29:56.869Z,7.88
2023-03-03T05:32:23.716Z,8.02
2023-03-03T05:34:52.948Z,7.78
2023-03-03T05:37:19.521Z,7.40
2023-03-03T05:39:46.107Z,7.43
2023-03-03T05:42:16.029Z,7.85
2023-03-03T05:44:42.599Z,8.57
2023-03-03T05:47:09.871Z,7.60
2023-03-03T05:49:36.561Z,7.27
2023-03-03T05:52:05.655Z,8.18
2023-03-03T05:54:32.719Z,7.18
2023-03-03T05:56:59.398Z,6.85
2023-03-03T05:59:26.076Z,6.78
2023-03-03T06:01:52.744Z,7.37
2023-03-03T06:04:19.408Z,7.25
2023-03-03T06:06:46.035Z,7.05
2023-03-03T06:09:12.838Z,7.72
2023-03-03T06:11:39.830Z,7.78
2023-03-03T06:14:06.466Z,7.17
2023-03-03T06:16:33.027Z,7.25
2023-03-03T06:18:59.856Z,6.65
2023-03-03T06:21:27.022Z,7.38
2023-03-03T06:23:53.656Z,7.20
2023-03-03T06:26:20.416Z,6.73
2023-03-03T06:28:47.050Z,6.32
2023-03-03T06:31:13.963Z,6.63
2023-03-03T06:33:43.890Z,6.43
2023-03-03T06:36:13.432Z,5.45
2023-03-03T06:38:40.025Z,5.37
2023-03-03T06:41:08.551Z,5.93
2023-03-03T06:43:35.689Z,5.22
2023-03-03T06:46:03.529Z,4.10
2023-03-03T06:48:31.682Z,4.93
2023-03-03T06:51:00.567Z,4.33
2023-03-03T06:53:27.718Z,4.38
2023-03-03T06:55:56.967Z,4.93
2023-03-03T06:58:27.650Z,4.78
2023-03-03T07:00:57.762Z,3.90
2023-03-03T07:03:28.505Z,3.63
2023-03-03T07:05:55.870Z,3.83
2023-03-03T07:08:25.018Z,4.57
2023-03-03T07:10:52.873Z,4.00
2023-03-03T07:13:24.688Z,4.93
2023-03-03T07:15:53.991Z,4.50
2023-03-03T07:18:29.991Z,3.90
2023-03-03T07:20:56.833Z,4.13
2023-03-03T07:23:42.764Z,3.92
2023-03-03T07:26:13.654Z,4.57
2023-03-03T07:28:46.130Z,4.47
2023-03-03T07:31:39.204Z,5.55
2023-03-03T07:34:17.001Z,5.18
2023-03-03T07:36:43.897Z,5.85
2023-03-03T07:39:37.212Z,5.45
2023-03-03T07:42:27.910Z,4.47
2023-03-03T07:44:57.823Z,4.72
2023-03-03T07:47:27.186Z,5.10
2023-03-03T07:49:58.517Z,5.10
2023-03-03T07:53:00.734Z,4.88
2023-03-03T07:55:34.224Z,4.43
2023-03-03T07:58:15.037Z,5.35
2023-03-03T08:01:19.729Z,4.85
2023-03-03T08:03:51.155Z,4.75
2023-03-03T08:06:44.489Z,4.18
2023-03-03T08:09:11.012Z,4.83
2023-03-03T08:12:19.902Z,4.50
2023-03-03T08:14:47.266Z,4.78
2023-03-03T08:17:23.707Z,5.40
2023-03-03T08:19:55.392Z,4.28
2023-03-03T08:22:33.321Z,4.43
2023-03-03T08:24:59.836Z,5.18
2023-03-03T08:27:26.550Z,4.47
2023-03-03T08:29:55.634Z,4.47
2023-03-03T08:32:27.240Z,4.72
2023-03-03T08:34:53.886Z,4.20
2023-03-03T08:37:20.409Z,4.30
2023-03-03T08:39:47.014Z,3.58
2023-03-03T08:42:16.105Z,4.28
2023-03-03T08:44:43.273Z,3.53
2023-03-03T08:47:09.847Z,4.17
2023-03-03T08:49:40.583Z,4.10
2023-03-03T08:52:07.217Z,4.05
2023-03-03T08:54:33.948Z,3.63
2023-03-03T08:57:00.824Z,3.75
2023-03-03T08:59:27.417Z,3.67
2023-03-03T09:01:54.093Z,3.88
2023-03-03T09:04:20.686Z,4.47
2023-03-03T09:06:47.507Z,3.65
2023-03-03T09:09:14.122Z,3.13
2023-03-03T09:11:44.469Z,2.97
2023-03-03T09:14:16.597Z,2.88
2023-03-03T09:16:52.198Z,3.05
2023-03-03T09:19:29.433Z,3.40
2023-03-03T09:21:59.567Z,3.38
2023-03-03T09:24:31.541Z,3.30
2023-03-03T09:26:59.108Z,2.65
2023-03-03T09:29:31.025Z,2.58
2023-03-03T09:32:01.223Z,2.25
2023-03-03T09:34:36.972Z,2.33
2023-03-03T09:37:44.321Z,2.60
2023-03-03T09:40:46.143Z,2.13
2023-03-03T09:43:15.234Z,2.10
2023-03-03T09:46:01.450Z,2.30
2023-03-03T09:48:51.072Z,2.10
2023-03-03T09:51:59.169Z,2.27
2023-03-03T09:54:51.653Z,2.10
2023-03-03T09:57:25.943Z,2.00
2023-03-03T10:00:10.239Z,2.10
2023-03-03T10:02:47.690Z,2.38
2023-03-03T10:05:21.722Z,2.20
2023-03-03T10:08:26.082Z,2.15
2023-03-03T10:11:20.445Z,2.42
2023-03-03T10:13:56.121Z,2.75
2023-03-03T10:16:47.812Z,2.13
2023-03-03T10:19:34.434Z,2.37
2023-03-03T10:22:16.554Z,2.58
2023-03-03T10:25:04.868Z,1.98
2023-03-03T10:28:11.291Z,2.22
2023-03-03T10:30:51.210Z,1.90
2023-03-03T10:34:00.731Z,2.00
2023-03-03T10:36:35.183Z,2.30
2023-03-03T10:39:20.092Z,1.90
2023-03-03T10:41:55.743Z,1.77
2023-03-03T10:44:37.477Z,1.90
2023-03-03T10:47:30.196Z,2.00
2023-03-03T10:50:04.875Z,1.80
2023-03-03T10:52:34.054Z,2.03
2023-03-03T10:55:20.977Z,2.25
2023-03-03T10:58:29.359Z,2.00
2023-03-03T11:01:11.716Z,1.57
2023-03-03T11:03:56.984Z,1.80
2023-03-03T11:06:45.614Z,2.08
2023-03-03T11:09:54.458Z,1.70
2023-03-03T11:12:22.643Z,1.90
2023-03-03T11:15:39.795Z,1.40
2023-03-03T11:18:59.836Z,1.77
2023-03-03T11:22:02.356Z,1.60
2023-03-03T11:24:40.284Z,1.90
2023-03-03T11:27:18.135Z,1.45
2023-03-03T11:29:56.884Z,1.40
2023-03-03T11:32:45.991Z,2.45
2023-03-03T11:35:35.979Z,2.45
2023-03-03T11:38:24.238Z,2.08
2023-03-03T11:40:57.309Z,1.65
2023-03-03T11:43:37.853Z,1.13
2023-03-03T11:46:15.374Z,0.90
2023-03-03T11:49:03.145Z,1.20
2023-03-03T11:51:53.200Z,1.13
2023-03-03T11:54:29.344Z,0.90
2023-03-03T11:57:13.711Z,0.47
2023-03-03T11:59:49.967Z,0.50
2023-03-03T12:02:45.074Z,0.85
2023-03-03T12:05:27.218Z,0.50
2023-03-03T12:08:16.346Z,0.68
2023-03-03T12:10:58.726Z,0.63
2023-03-03T12:13:36.744Z,0.70
2023-03-03T12:16:25.145Z,0.50
2023-03-03T12:18:57.526Z,0.43
2023-03-03T12:21:45.929Z,0.45
2023-03-03T12:24:30.018Z,0.30
2023-03-03T12:27:08.921Z,0.40
2023-03-03T12:29:46.908Z,0.50
2023-03-03T12:32:51.316Z,0.30
2023-03-03T12:35:29.247Z,0.63
2023-03-03T12:38:27.107Z,0.40
2023-03-03T12:41:16.367Z,0.40
2023-03-03T12:43:51.516Z,0.32
2023-03-03T12:46:41.002Z,0.25
2023-03-03T12:49:08.935Z,0.38
2023-03-03T12:51:59.865Z,0.40
2023-03-03T12:54:39.598Z,0.47
2023-03-03T12:57:52.087Z,0.60
2023-03-03T13:00:43.003Z,0.60
2023-03-03T13:03:20.254Z,0.60
2023-03-03T13:06:06.428Z,0.43
2023-03-03T13:08:51.258Z,0.93
2023-03-03T13:11:47.733Z,1.02
2023-03-03T13:14:29.788Z,0.85
2023-03-03T13:17:18.314Z,1.02
2023-03-03T13:20:01.556Z,1.00
2023-03-03T13:22:37.977Z,0.80
2023-03-03T13:25:23.228Z,0.70
2023-03-03T13:27:56.451Z,0.80
2023-03-03T13:30:35.481Z,0.50
2023-03-03T13:33:20.584Z,1.13
2023-03-03T13:35:58.227Z,0.80
2023-03-03T13:38:35.175Z,0.60
2023-03-03T13:41:24.806Z,0.68
2023-03-03T13:44:04.399Z,0.65
2023-03-03T13:46:59.538Z,0.83
2023-03-03T13:49:47.841Z,0.95
2023-03-03T13:52:23.307Z,0.77
2023-03-03T13:55:09.191Z,0.70
2023-03-03T13:57:43.778Z,0.82
2023-03-03T14:00:25.809Z,0.80
2023-03-03T14:02:55.526Z,0.80
2023-03-03T14:05:36.499Z,1.00
2023-03-03T14:08:12.437Z,0.95
2023-03-03T14:10:48.995Z,0.82
2023-03-03T14:13:31.566Z,0.80
2023-03-03T14:16:16.071Z,0.90
2023-03-03T14:19:03.019Z,0.75
2023-03-03T14:21:45.748Z,0.82
2023-03-03T14:24:18.412Z,0.90
2023-03-03T14:26:54.626Z,0.50
2023-03-03T14:29:30.940Z,0.52
2023-03-03T14:32:01.543Z,0.73
2023-03-03T14:34:41.219Z,0.40
2023-03-03T14:37:27.972Z,0.45
2023-03-03T14:40:17.012Z,0.40
2023-03-03T14:42:48.905Z,0.40
2023-03-03T14:45:30.849Z,0.40
2023-03-03T14:47:59.017Z,0.50
2023-03-03T14:50:36.110Z,0.32
2023-03-03T14:53:20.158Z,0.30
2023-03-03T14:55:49.574Z,0.30
2023-03-03T14:58:27.139Z,0.30
2023-03-03T15:01:36.027Z,0.38
2023-03-03T15:04:10.434Z,0.40
2023-03-03T15:06:44.158Z,0.30
2023-03-03T15:09:43.636Z,0.30
2023-03-03T15:12:22.843Z,0.40
2023-03-03T15:14:52.332Z,0.30
2023-03-03T15:17:36.546Z,0.40
2023-03-03T15:20:27.115Z,0.40
2023-03-03T15:23:13.991Z,0.40
2023-03-03T15:25:53.323Z,0.40
2023-03-03T15:28:29.831Z,0.60
2023-03-03T15:31:30.173Z,0.60
2023-03-03T15:34:30.715Z,0.60
2023-03-03T15:37:12.411Z,0.40
2023-03-03T15:39:58.201Z,0.40
2023-03-03T15:42:39.301Z,0.30
2023-03-03T15:45:46.675Z,0.50
2023-03-03T15:48:30.743Z,0.40
2023-03-03T15:51:17.706Z,0.40
2023-03-03T15:54:15.009Z,0.40
2023-03-03T15:57:01.089Z,0.40
2023-03-03T15:59:46.490Z,0.30
2023-03-03T16:02:15.993Z,0.50
2023-03-03T16:04:52.268Z,0.28
2023-03-03T16:07:35.658Z,0.30
2023-03-03T16:10:29.513Z,0.30
2023-03-03T16:13:07.964Z,0.35
2023-03-03T16:15:53.835Z,0.40
2023-03-03T16:18:20.455Z,0.30
2023-03-03T16:21:19.466Z,0.45
2023-03-03T16:23:51.295Z,0.40
2023-03-03T16:26:44.044Z,0.40
2023-03-03T16:29:38.150Z,0.30
2023-03-03T16:32:22.734Z,0.60
2023-03-03T16:35:14.627Z,0.30
2023-03-03T16:37:56.012Z,0.30
2023-03-03T16:40:43.453Z,0.40
2023-03-03T16:43:27.492Z,0.60
2023-03-03T16:46:02.628Z,0.73
2023-03-03T16:48:31.861Z,1.10
2023-03-03T16:51:19.558Z,0.40
2023-03-03T16:54:08.059Z,0.68
2023-03-03T16:56:44.635Z,0.60
2023-03-03T16:59:52.451Z,0.50
2023-03-03T17:02:32.369Z,0.70
2023-03-03T17:05:35.962Z,0.40
2023-03-03T17:08:24.261Z,0.65
2023-03-03T17:11:04.295Z,0.60
2023-03-03T17:13:56.987Z,0.60
2023-03-03T17:16:42.628Z,1.10
2023-03-03T17:19:44.071Z,0.50
2023-03-03T17:22:17.938Z,0.63
2023-03-03T17:25:03.254Z,0.60
2023-03-03T17:27:57.482Z,0.50
2023-03-03T17:30:45.620Z,0.70
2023-03-03T17:33:28.073Z,0.70
2023-03-03T17:36:18.516Z,0.60
2023-03-03T17:38:54.075Z,0.50
2023-03-03T17:41:44.219Z,0.57
2023-03-03T17:44:25.932Z,0.77
2023-03-03T17:46:56.208Z,0.80
2023-03-03T17:49:40.974Z,0.65
2023-03-03T17:52:40.217Z,0.60
2023-03-03T17:55:38.330Z,0.80
2023-03-03T17:58:26.415Z,0.70
2023-03-03T18:00:58.977Z,0.77
2023-03-03T18:03:56.304Z,1.15
2023-03-03T18:06:41.421Z,0.70
2023-03-03T18:09:15.047Z,1.20
2023-03-03T18:11:58.972Z,0.93
2023-03-03T18:14:42.422Z,0.88
2023-03-03T18:17:19.608Z,1.10
2023-03-03T18:20:23.232Z,1.30
2023-03-03T18:22:51.808Z,1.13
2023-03-03T18:25:20.830Z,1.00
2023-03-03T18:28:03.791Z,0.60
2023-03-03T18:30:57.732Z,0.70
2023-03-03T18:33:52.266Z,0.70
2023-03-03T18:36:28.150Z,0.80
2023-03-03T18:39:00.423Z,1.58
2023-03-03T18:41:30.303Z,1.10
2023-03-03T18:44:17.683Z,0.95
2023-03-03T18:46:50.555Z,0.90
2023-03-03T18:49:17.957Z,0.95
2023-03-03T18:51:44.500Z,0.73
2023-03-03T18:54:39.775Z,0.90
2023-03-03T18:57:17.800Z,1.35
2023-03-03T19:00:13.622Z,1.13
2023-03-03T19:02:51.280Z,0.75
2023-03-03T19:05:20.011Z,0.65
2023-03-03T19:07:51.223Z,0.73
2023-03-03T19:10:20.175Z,0.80
2023-03-03T19:12:53.840Z,1.57
2023-03-03T19:15:29.466Z,0.98
2023-03-03T19:18:19.192Z,1.00
2023-03-03T19:20:48.339Z,0.73
2023-03-03T19:23:18.489Z,1.50
2023-03-03T19:25:45.044Z,1.60
2023-03-03T19:28:41.798Z,1.10
2023-03-03T19:34:51.346Z,0.80
2023-03-03T19:37:51.650Z,0.70
2023-03-03T19:40:42.436Z,1.13
2023-03-03T19:43:50.214Z,1.00
2023-03-03T19:46:58.686Z,1.02
2023-03-03T19:49:48.808Z,1.00
2023-03-03T19:52:36.682Z,1.17
2023-03-03T19:55:30.663Z,1.47
2023-03-03T19:58:20.943Z,1.27
2023-03-03T20:00:55.775Z,1.17
2023-03-03T20:03:31.757Z,1.13
2023-03-03T20:06:28.360Z,1.30
2023-03-03T20:09:00.364Z,1.53
2023-03-03T20:11:59.269Z,1.27
2023-03-03T20:14:57.820Z,1.52
2023-03-03T20:17:33.236Z,1.40
2023-03-03T20:20:27.417Z,1.77
2023-03-03T20:23:05.829Z,1.20
2023-03-03T20:25:46.303Z,1.20
2023-03-03T20:28:46.723Z,0.90
2023-03-03T20:31:27.659Z,0.88
2023-03-03T20:34:14.289Z,1.33
2023-03-03T20:37:05.674Z,0.90
2023-03-03T20:39:37.796Z,1.20
2023-03-03T20:42:30.282Z,1.02
2023-03-03T20:45:12.233Z,0.80
2023-03-03T20:47:45.194Z,0.90
2023-03-03T20:50:39.952Z,0.80
2023-03-03T20:53:46.820Z,1.33
2023-03-03T20:56:21.013Z,1.10
2023-03-03T20:59:14.287Z,1.08
2023-03-03T21:02:02.492Z,1.05
2023-03-03T21:04:31.750Z,1.23
2023-03-03T21:06:58.543Z,1.00
2023-03-03T21:09:30.882Z,1.35
2023-03-03T21:11:59.081Z,1.25
2023-03-03T21:14:33.310Z,1.35
2023-03-03T21:17:02.645Z,0.90
2023-03-03T21:19:34.272Z,1.67
2023-03-03T21:22:02.238Z,1.90
2023-03-03T21:24:55.523Z,1.20
2023-03-03T21:27:31.092Z,2.03
2023-03-03T21:30:06.802Z,1.67
2023-03-03T21:32:44.726Z,1.52
2023-03-03T21:35:17.393Z,1.30
2023-03-03T21:37:47.510Z,1.00
2023-03-03T21:40:29.475Z,1.65
2023-03-03T21:42:58.941Z,1.70
2023-03-03T21:45:30.138Z,0.98
2023-03-03T21:47:59.282Z,1.55
2023-03-03T21:50:31.231Z,1.17
2023-03-03T21:53:02.934Z,2.05
2023-03-03T21:55:29.452Z,1.27
2023-03-03T21:57:55.873Z,1.45
2023-03-03T22:00:22.569Z,1.30
2023-03-03T22:02:49.276Z,1.25
2023-03-03T22:05:15.849Z,1.80
2023-03-03T22:07:42.369Z,1.50
2023-03-03T22:10:10.026Z,1.23
2023-03-03T22:12:42.048Z,1.10
2023-03-03T22:15:10.499Z,1.42
2023-03-03T22:17:37.407Z,1.25
2023-03-03T22:20:04.050Z,1.00
2023-03-03T22:22:30.464Z,1.30
2023-03-03T22:24:56.887Z,0.93
2023-03-03T22:27:23.518Z,1.10
2023-03-03T22:29:50.054Z,1.20
2023-03-03T22:32:21.902Z,0.80
2023-03-03T22:34:48.420Z,1.20
2023-03-03T22:37:14.910Z,1.00
2023-03-03T22:39:41.402Z,0.77
2023-03-03T22:42:07.765Z,0.98
2023-03-03T22:44:34.255Z,1.20
2023-03-03T22:47:00.706Z,1.25
2023-03-03T22:49:27.255Z,0.60
2023-03-03T22:51:53.740Z,1.00
2023-03-03T22:54:20.147Z,1.10
2023-03-03T22:56:46.868Z,0.60
2023-03-03T22:59:13.426Z,0.82
2023-03-03T23:01:40.019Z,0.73
2023-03-03T23:04:06.767Z,0.70
2023-03-03T23:06:33.382Z,0.60
2023-03-03T23:08:59.931Z,1.70
2023-03-03T23:11:27.631Z,1.23
2023-03-03T23:13:54.097Z,1.17
2023-03-03T23:16:21.333Z,0.70
2023-03-03T23:18:47.771Z,0.82
2023-03-03T23:21:14.293Z,0.63
2023-03-03T23:23:40.827Z,0.95
2023-03-03T23:26:07.430Z,0.50
2023-03-03T23:28:34.430Z,0.88
2023-03-03T23:31:00.911Z,1.13
2023-03-03T23:33:27.498Z,0.93
2023-03-03T23:35:54.021Z,0.93
2023-03-03T23:38:20.662Z,0.82
2023-03-03T23:40:47.474Z,0.68
2023-03-03T23:43:14.512Z,0.80
2023-03-03T23:45:40.986Z,0.67
2023-03-03T23:48:07.700Z,0.68
2023-03-03T23:50:37.176Z,1.00
2023-03-03T23:53:05.083Z,0.80
2023-03-03T23:55:31.515Z,0.80
2023-03-03T23:57:58.216Z,0.80
